createdAt,value
2022-11-01T00:02:16.799Z,101246.31
2022-11-01T00:04:46.013Z,101236.50
2022-11-01T00:07:14.986Z,101248.81
2022-11-01T00:09:43.945Z,101231.38
2022-11-01T00:12:12.868Z,101235.81
2022-11-01T00:14:41.801Z,101234.00
2022-11-01T00:17:10.736Z,101225.03
2022-11-01T00:19:41.045Z,101239.13
2022-11-01T00:22:09.978Z,101222.41
2022-11-01T00:24:38.899Z,101227.66
2022-11-01T00:27:07.818Z,101221.56
2022-11-01T00:29:36.766Z,101218.94
2022-11-01T00:32:06.847Z,101225.72
2022-11-01T00:34:35.762Z,101226.53
2022-11-01T00:37:06.017Z,101217.13
2022-11-01T00:39:35.031Z,101223.91
2022-11-01T00:42:03.970Z,101222.97
2022-11-01T00:44:32.958Z,101218.66
2022-11-01T00:47:01.881Z,101225.47
2022-11-01T00:49:30.774Z,101234.31
2022-11-01T00:51:59.706Z,101229.06
2022-11-01T00:54:30.046Z,101218.41
2022-11-01T00:56:59.029Z,101206.22
2022-11-01T00:59:27.945Z,101200.13
2022-11-01T01:01:57.000Z,101201.81
2022-11-01T01:04:25.997Z,101179.66
2022-11-01T01:06:55.098Z,101187.44
2022-11-01T01:09:23.998Z,101169.13
2022-11-01T01:11:54.512Z,101167.22
2022-11-01T01:14:26.452Z,101173.28
2022-11-01T01:16:57.492Z,101183.69
2022-11-01T01:19:26.423Z,101174.97
2022-11-01T01:21:55.373Z,101169.69
2022-11-01T01:24:24.653Z,101171.66
2022-11-01T01:26:55.097Z,101171.66
2022-11-01T01:29:24.205Z,101170.66
2022-11-01T01:31:53.472Z,101177.47
2022-11-01T01:34:22.436Z,101170.28
2022-11-01T01:36:51.311Z,101169.44
2022-11-01T01:39:20.294Z,101159.34
2022-11-01T01:41:58.387Z,101152.19
2022-11-01T01:45:15.308Z,101139.88
2022-11-01T01:47:48.201Z,101144.13
2022-11-01T01:50:23.506Z,101132.25
2022-11-01T01:52:56.593Z,101138.47
2022-11-01T01:55:29.075Z,101127.69
2022-11-01T01:57:59.439Z,101124.09
2022-11-01T02:00:29.831Z,101125.50
2022-11-01T02:02:58.944Z,101107.19
2022-11-01T02:05:38.200Z,101113.16
2022-11-01T02:08:08.282Z,101098.34
2022-11-01T02:10:37.479Z,101093.91
2022-11-01T02:13:14.124Z,101080.88
2022-11-01T02:15:54.689Z,101074.66
2022-11-01T02:18:33.153Z,101065.53
2022-11-01T02:21:23.166Z,101065.25
2022-11-01T02:24:21.128Z,101046.69
2022-11-01T02:27:03.886Z,101058.63
2022-11-01T02:29:51.699Z,101067.06
2022-11-01T02:32:29.950Z,101057.38
2022-11-01T02:35:05.443Z,101058.06
2022-11-01T02:37:40.723Z,101049.75
2022-11-01T02:40:15.095Z,101043.66
2022-11-01T02:42:46.804Z,101047.66
2022-11-01T02:45:28.922Z,101038.53
2022-11-01T02:48:01.295Z,101033.97
2022-11-01T02:50:34.734Z,101031.63
2022-11-01T02:53:04.584Z,101015.81
2022-11-01T02:55:36.000Z,101011.41
2022-11-01T02:58:07.703Z,101003.22
2022-11-01T03:00:37.655Z,100998.78
2022-11-01T03:03:13.830Z,100992.81
2022-11-01T03:05:54.767Z,101001.53
2022-11-01T03:08:27.959Z,100983.97
2022-11-01T03:11:05.130Z,100989.22
2022-11-01T03:13:58.932Z,101010.53
2022-11-01T03:16:32.786Z,100993.91
2022-11-01T03:19:18.592Z,100997.91
2022-11-01T03:21:52.889Z,101001.94
2022-11-01T03:24:27.524Z,100994.03
2022-11-01T03:27:03.938Z,100991.69
2022-11-01T03:29:34.456Z,100993.06
2022-11-01T03:32:05.327Z,100994.88
2022-11-01T03:34:38.501Z,100983.38
2022-11-01T03:37:12.415Z,100973.69
2022-11-01T03:39:44.570Z,100969.25
2022-11-01T03:42:16.474Z,100965.78
2022-11-01T03:44:48.604Z,100958.97
2022-11-01T03:47:17.599Z,100943.19
2022-11-01T03:49:47.909Z,100958.72
2022-11-01T03:52:16.865Z,100951.50
2022-11-01T03:54:45.790Z,100941.13
2022-11-01T03:57:14.696Z,100936.66
2022-11-01T03:59:43.912Z,100943.75
2022-11-01T04:02:12.840Z,100950.94
2022-11-01T04:04:41.788Z,100956.22
2022-11-01T04:07:12.055Z,100947.34
2022-11-01T04:09:40.996Z,100940.53
2022-11-01T04:12:09.934Z,100952.63
2022-11-01T04:14:56.353Z,100959.38
2022-11-01T04:17:43.017Z,100949.03
2022-11-01T04:20:29.702Z,100944.84
2022-11-01T04:23:00.354Z,100942.50
2022-11-01T04:25:29.923Z,100940.72
2022-11-01T04:27:59.827Z,100934.47
2022-11-01T04:30:30.682Z,100931.00
2022-11-01T04:32:59.897Z,100935.69
2022-11-01T04:35:29.070Z,100933.34
2022-11-01T04:38:00.698Z,100931.38
2022-11-01T04:40:29.962Z,100927.13
2022-11-01T04:43:00.307Z,100933.91
2022-11-01T04:45:29.279Z,100934.72
2022-11-01T04:48:06.464Z,100941.91
2022-11-01T04:50:36.377Z,100931.56
2022-11-01T04:53:06.842Z,100927.38
2022-11-01T04:55:36.087Z,100920.59
2022-11-01T04:58:06.675Z,100932.09
2022-11-01T05:00:35.704Z,100934.91
2022-11-01T05:03:07.076Z,100939.88
2022-11-01T05:05:37.879Z,100933.22
2022-11-01T05:08:09.970Z,100917.56
2022-11-01T05:10:41.279Z,100904.41
2022-11-01T05:13:11.079Z,100903.31
2022-11-01T05:15:53.219Z,100908.75
2022-11-01T05:18:29.286Z,100913.00
2022-11-01T05:20:58.260Z,100915.94
2022-11-01T05:23:28.556Z,100914.25
2022-11-01T05:25:58.491Z,100919.53
2022-11-01T05:28:27.499Z,100922.16
2022-11-01T05:30:58.405Z,100924.63
2022-11-01T05:33:27.418Z,100927.84
2022-11-01T05:35:56.348Z,100920.75
2022-11-01T05:38:26.699Z,100933.22
2022-11-01T05:40:55.629Z,100913.97
2022-11-01T05:43:24.812Z,100909.81
2022-11-01T05:45:53.756Z,100909.97
2022-11-01T05:48:22.734Z,100909.00
2022-11-01T05:50:51.689Z,100911.63
2022-11-01T05:53:20.655Z,100906.66
2022-11-01T05:55:51.054Z,100905.41
2022-11-01T05:58:20.073Z,100911.47
2022-11-01T06:00:49.028Z,100919.94
2022-11-01T06:03:17.943Z,100927.13
2022-11-01T06:05:46.959Z,100926.16
2022-11-01T06:08:16.068Z,100918.81
2022-11-01T06:10:45.019Z,100921.56
2022-11-01T06:13:15.294Z,100922.13
2022-11-01T06:15:44.822Z,100932.81
2022-11-01T06:18:13.752Z,100920.31
2022-11-01T06:20:42.701Z,100920.31
2022-11-01T06:23:12.647Z,100920.59
2022-11-01T06:25:41.588Z,100915.47
2022-11-01T06:28:10.550Z,100924.91
2022-11-01T06:30:40.869Z,100917.84
2022-11-01T06:33:09.852Z,100922.69
2022-11-01T06:35:38.830Z,100925.44
2022-11-01T06:38:09.825Z,100928.09
2022-11-01T06:40:39.004Z,100933.06
2022-11-01T06:43:07.984Z,100938.19
2022-11-01T06:45:36.941Z,100936.66
2022-11-01T06:48:07.747Z,100944.56
2022-11-01T06:50:36.746Z,100941.50
2022-11-01T06:53:05.688Z,100945.94
2022-11-01T06:55:34.641Z,100950.38
2022-11-01T06:58:04.746Z,100964.22
2022-11-01T07:00:33.911Z,100958.97
2022-11-01T07:03:05.314Z,100969.63
2022-11-01T07:05:37.591Z,100967.16
2022-11-01T07:08:08.987Z,100964.78
2022-11-01T07:10:38.948Z,100972.13
2022-11-01T07:13:10.218Z,100977.28
2022-11-01T07:15:39.301Z,100978.22
2022-11-01T07:18:09.206Z,100979.63
2022-11-01T07:20:42.470Z,100978.66
2022-11-01T07:23:13.898Z,100976.69
2022-11-01T07:25:43.607Z,100985.13
2022-11-01T07:28:12.647Z,100986.38
2022-11-01T07:30:41.682Z,100985.56
2022-11-01T07:33:11.007Z,100982.91
2022-11-01T07:35:41.296Z,100987.66
2022-11-01T07:38:13.169Z,100984.75
2022-11-01T07:40:42.837Z,100989.59
2022-11-01T07:43:12.261Z,100985.16
2022-11-01T07:45:41.192Z,100984.31
2022-11-01T07:48:13.142Z,100985.28
2022-11-01T07:50:44.482Z,100987.78
2022-11-01T07:53:15.462Z,100977.78
2022-11-01T07:55:44.956Z,100981.38
2022-11-01T07:58:15.074Z,100984.91
2022-11-01T08:00:45.014Z,100987.97
2022-11-01T08:03:15.931Z,100978.50
2022-11-01T08:05:47.675Z,100986.38
2022-11-01T08:08:17.367Z,100990.91
2022-11-01T08:10:46.924Z,100989.88
2022-11-01T08:13:18.246Z,100989.63
2022-11-01T08:15:48.331Z,100989.50
2022-11-01T08:18:17.898Z,100986.41
2022-11-01T08:20:48.244Z,100997.06
2022-11-01T08:23:17.427Z,100995.06
2022-11-01T08:25:47.416Z,100997.41
2022-11-01T08:28:18.151Z,100995.16
2022-11-01T08:30:48.945Z,101009.19
2022-11-01T08:33:17.904Z,101007.13
2022-11-01T08:35:50.643Z,100997.41
2022-11-01T08:38:20.255Z,101010.81
2022-11-01T08:40:49.250Z,101012.03
2022-11-01T08:43:18.540Z,101013.19
2022-11-01T08:45:47.976Z,101015.09
2022-11-01T08:48:17.013Z,101023.03
2022-11-01T08:50:47.314Z,101020.09
2022-11-01T08:53:16.409Z,101017.75
2022-11-01T08:55:45.412Z,101020.91
2022-11-01T08:58:14.475Z,101018.34
2022-11-01T09:00:44.604Z,101025.44
2022-11-01T09:03:13.922Z,101026.13
2022-11-01T09:05:42.851Z,101019.09
2022-11-01T09:08:13.144Z,101018.88
2022-11-01T09:10:42.134Z,101018.41
2022-11-01T09:13:11.352Z,101023.81
2022-11-01T09:15:40.554Z,101024.41
2022-11-01T09:18:09.913Z,101024.78
2022-11-01T09:20:38.896Z,101026.50
2022-11-01T09:23:07.800Z,101013.75
2022-11-01T09:25:38.077Z,101020.38
2022-11-01T09:28:07.039Z,101025.06
2022-11-01T09:30:41.505Z,101016.22
2022-11-01T09:33:21.377Z,101018.56
2022-11-01T09:35:56.694Z,101025.03
2022-11-01T09:38:29.030Z,101030.84
2022-11-01T09:41:04.107Z,101023.59
2022-11-01T09:43:38.092Z,101032.22
2022-11-01T09:46:08.780Z,101033.69
2022-11-01T09:48:38.663Z,101034.56
2022-11-01T09:51:17.552Z,101044.97
2022-11-01T09:53:47.301Z,101047.44
2022-11-01T09:56:22.642Z,101050.91
2022-11-01T09:59:01.602Z,101041.81
2022-11-01T10:04:50.410Z,101050.78
2022-11-01T10:07:28.493Z,101050.09
2022-11-01T10:10:04.512Z,101059.34
2022-11-01T10:12:48.159Z,101057.84
2022-11-01T10:15:33.238Z,101059.00
2022-11-01T10:18:08.389Z,101063.66
2022-11-01T10:20:41.233Z,101067.59
2022-11-01T10:23:15.875Z,101073.06
2022-11-01T10:25:52.839Z,101074.38
2022-11-01T10:28:31.029Z,101073.72
2022-11-01T10:31:04.631Z,101077.19
2022-11-01T10:33:39.148Z,101075.53
2022-11-01T10:36:14.934Z,101078.84
2022-11-01T10:41:42.350Z,101087.28
2022-11-01T10:44:18.359Z,101095.78
2022-11-01T10:46:49.612Z,101087.75
2022-11-01T10:49:24.786Z,101085.13
2022-11-01T10:51:59.026Z,101095.72
2022-11-01T10:54:31.338Z,101079.94
2022-11-01T10:57:04.634Z,101089.56
2022-11-01T10:59:40.341Z,101080.25
2022-11-01T11:02:22.946Z,101084.72
2022-11-01T11:04:52.813Z,101090.88
2022-11-01T11:07:24.317Z,101094.63
2022-11-01T11:09:53.416Z,101098.84
2022-11-01T11:12:24.947Z,101095.50
2022-11-01T11:14:59.720Z,101096.69
2022-11-01T11:17:35.648Z,101110.78
2022-11-01T11:20:06.808Z,101112.72
2022-11-01T11:22:40.901Z,101107.78
2022-11-01T11:25:17.502Z,101101.00
2022-11-01T11:27:48.828Z,101114.91
2022-11-01T11:30:30.231Z,101131.31
2022-11-01T11:33:00.018Z,101118.22
2022-11-01T11:35:32.587Z,101119.78
2022-11-01T11:38:04.774Z,101123.97
2022-11-01T11:40:45.584Z,101123.97
2022-11-01T11:43:25.997Z,101135.28
2022-11-01T11:46:14.775Z,101135.75
2022-11-01T11:48:49.436Z,101145.22
2022-11-01T11:51:19.073Z,101143.91
2022-11-01T11:54:11.221Z,101144.91
2022-11-01T11:56:40.458Z,101154.53
2022-11-01T11:59:22.929Z,101156.69
2022-11-01T12:01:57.467Z,101159.16
2022-11-01T12:04:30.143Z,101172.44
2022-11-01T12:06:59.092Z,101164.66
2022-11-01T12:09:46.468Z,101158.94
2022-11-01T12:12:20.667Z,101164.47
2022-11-01T12:14:49.827Z,101161.97
2022-11-01T12:17:34.904Z,101172.75
2022-11-01T12:20:10.770Z,101175.78
2022-11-01T12:22:42.451Z,101172.25
2022-11-01T12:25:16.950Z,101174.06
2022-11-01T12:27:56.746Z,101180.38
2022-11-01T12:30:28.341Z,101178.97
2022-11-01T12:33:00.413Z,101176.81
2022-11-01T12:35:32.478Z,101179.84
2022-11-01T12:38:17.510Z,101194.22
2022-11-01T12:40:50.781Z,101193.88
2022-11-01T12:43:24.198Z,101202.59
2022-11-01T12:45:58.016Z,101203.88
2022-11-01T12:48:32.499Z,101203.22
2022-11-01T12:51:06.951Z,101202.28
2022-11-01T12:53:43.633Z,101201.31
2022-11-01T12:56:13.035Z,101205.44
2022-11-01T12:58:42.115Z,101210.41
2022-11-01T13:01:31.634Z,101209.59
2022-11-01T13:04:15.413Z,101214.75
2022-11-01T13:07:03.547Z,101228.72
2022-11-01T13:09:42.517Z,101211.72
2022-11-01T13:12:19.946Z,101220.19
2022-11-01T13:15:04.108Z,101208.59
2022-11-01T13:17:41.755Z,101230.47
2022-11-01T13:20:44.017Z,101226.16
2022-11-01T13:23:22.635Z,101245.44
2022-11-01T13:25:57.689Z,101239.50
2022-11-01T13:28:39.685Z,101237.88
2022-11-01T13:31:18.330Z,101239.69
2022-11-01T13:33:54.660Z,101250.34
2022-11-01T13:36:33.031Z,101260.16
2022-11-01T13:39:13.959Z,101246.13
2022-11-01T13:41:50.019Z,101258.38
2022-11-01T13:44:22.454Z,101254.47
2022-11-01T13:47:08.119Z,101252.28
2022-11-01T13:50:01.765Z,101253.06
2022-11-01T13:52:35.248Z,101259.41
2022-11-01T13:55:18.824Z,101257.91
2022-11-01T13:57:48.615Z,101260.56
2022-11-01T14:00:41.302Z,101262.78
2022-11-01T14:03:25.775Z,101248.28
2022-11-01T14:09:30.443Z,101254.09
2022-11-01T14:12:11.400Z,101250.44
2022-11-01T14:14:54.124Z,101245.44
2022-11-01T14:18:00.853Z,101245.31
2022-11-01T14:20:46.081Z,101247.53
2022-11-01T14:23:54.797Z,101247.84
2022-11-01T14:27:01.966Z,101257.59
2022-11-01T14:29:31.232Z,101261.69
2022-11-01T14:32:00.890Z,101257.41
2022-11-01T14:34:35.309Z,101266.13
2022-11-01T14:37:17.084Z,101274.59
2022-11-01T14:39:59.105Z,101277.50
2022-11-01T14:42:39.931Z,101271.78
2022-11-01T14:45:28.692Z,101278.47
2022-11-01T14:48:01.876Z,101288.59
2022-11-01T14:50:39.940Z,101283.78
2022-11-01T14:53:15.761Z,101279.25
2022-11-01T14:55:44.689Z,101288.16
2022-11-01T14:58:23.395Z,101293.81
2022-11-01T15:00:54.713Z,101301.53
2022-11-01T15:03:24.340Z,101299.25
2022-11-01T15:05:54.341Z,101299.38
2022-11-01T15:08:29.193Z,101305.28
2022-11-01T15:11:01.051Z,101302.28
2022-11-01T15:13:36.741Z,101296.09
2022-11-01T15:16:15.082Z,101299.94
2022-11-01T15:18:49.562Z,101303.56
2022-11-01T15:21:24.382Z,101312.13
2022-11-01T15:23:57.844Z,101303.19
2022-11-01T15:26:31.069Z,101310.03
2022-11-01T15:29:04.133Z,101314.97
2022-11-01T15:31:35.698Z,101309.69
2022-11-01T15:34:20.840Z,101313.88
2022-11-01T15:36:50.453Z,101316.38
2022-11-01T15:39:22.638Z,101319.06
2022-11-01T15:41:53.942Z,101319.19
2022-11-01T15:44:26.319Z,101317.09
2022-11-01T15:46:58.949Z,101318.88
2022-11-01T15:49:33.845Z,101317.53
2022-11-01T15:52:06.067Z,101313.50
2022-11-01T15:54:42.091Z,101318.22
2022-11-01T15:57:20.140Z,101316.88
2022-11-01T15:59:58.592Z,101319.50
2022-11-01T16:02:31.211Z,101322.97
2022-11-01T16:05:01.203Z,101317.00
2022-11-01T16:07:32.897Z,101315.19
2022-11-01T16:10:05.334Z,101326.31
2022-11-01T16:12:38.459Z,101324.22
2022-11-01T16:15:20.295Z,101322.00
2022-11-01T16:17:49.432Z,101320.91
2022-11-01T16:20:31.256Z,101319.63
2022-11-01T16:23:01.606Z,101325.19
2022-11-01T16:25:32.720Z,101322.53
2022-11-01T16:28:05.932Z,101316.03
2022-11-01T16:30:48.770Z,101320.59
2022-11-01T16:33:20.326Z,101322.38
2022-11-01T16:35:50.953Z,101324.88
2022-11-01T16:38:38.380Z,101326.09
2022-11-01T16:41:15.673Z,101331.91
2022-11-01T16:43:45.778Z,101334.13
2022-11-01T16:46:16.427Z,101337.44
2022-11-01T16:48:54.297Z,101339.94
2022-11-01T16:51:26.756Z,101344.38
2022-11-01T16:53:57.194Z,101342.66
2022-11-01T16:56:37.663Z,101344.19
2022-11-01T16:59:16.272Z,101357.94
2022-11-01T17:01:47.452Z,101347.03
2022-11-01T17:04:18.482Z,101350.69
2022-11-01T17:06:47.848Z,101354.84
2022-11-01T17:09:19.654Z,101356.22
2022-11-01T17:11:51.588Z,101358.22
2022-11-01T17:14:22.095Z,101366.81
2022-11-01T17:16:53.604Z,101366.19
2022-11-01T17:19:27.325Z,101364.91
2022-11-01T17:21:57.576Z,101363.81
2022-11-01T17:24:31.100Z,101362.28
2022-11-01T17:27:02.012Z,101364.34
2022-11-01T17:29:31.395Z,101360.47
2022-11-01T17:32:04.015Z,101368.38
2022-11-01T17:37:03.421Z,101372.69
2022-11-01T17:39:32.669Z,101370.53
2022-11-01T17:42:02.051Z,101366.50
2022-11-01T17:44:30.996Z,101364.41
2022-11-01T17:47:02.393Z,101374.75
2022-11-01T17:49:31.412Z,101377.34
2022-11-01T17:52:01.066Z,101372.44
2022-11-01T17:54:30.057Z,101379.69
2022-11-01T17:56:59.073Z,101375.38
2022-11-01T17:59:28.616Z,101382.31
2022-11-01T18:01:57.669Z,101384.44
2022-11-01T18:04:32.607Z,101384.63
2022-11-01T18:07:05.184Z,101380.88
2022-11-01T18:09:37.331Z,101378.44
2022-11-01T18:12:11.614Z,101374.66
2022-11-01T18:14:55.969Z,101378.81
2022-11-01T18:17:46.657Z,101392.09
2022-11-01T18:20:28.646Z,101389.16
2022-11-01T18:23:02.572Z,101390.56
2022-11-01T18:25:37.390Z,101387.72
2022-11-01T18:28:14.139Z,101396.34
2022-11-01T18:30:44.907Z,101394.41
2022-11-01T18:33:20.575Z,101391.69
2022-11-01T18:35:55.930Z,101395.50
2022-11-01T18:38:30.325Z,101389.78
2022-11-01T18:41:00.496Z,101393.97
2022-11-01T18:43:32.964Z,101393.63
2022-11-01T18:46:24.451Z,101395.41
2022-11-01T18:48:59.904Z,101397.44
2022-11-01T18:51:32.939Z,101394.22
2022-11-01T18:54:23.160Z,101391.00
2022-11-01T18:56:54.375Z,101391.94
2022-11-01T18:59:30.027Z,101386.59
2022-11-01T19:02:07.248Z,101389.81
2022-11-01T19:04:37.448Z,101391.00
2022-11-01T19:07:14.103Z,101394.22
2022-11-01T19:09:47.178Z,101393.25
2022-11-01T19:12:22.623Z,101395.41
2022-11-01T19:14:57.859Z,101401.38
2022-11-01T19:17:28.647Z,101405.88
2022-11-01T19:19:59.674Z,101406.84
2022-11-01T19:22:39.999Z,101401.13
2022-11-01T19:25:19.690Z,101405.91
2022-11-01T19:27:50.521Z,101399.56
2022-11-01T19:30:24.485Z,101410.78
2022-11-01T19:32:57.161Z,101409.94
2022-11-01T19:35:26.124Z,101412.69
2022-11-01T19:37:58.097Z,101412.22
2022-11-01T19:40:31.250Z,101411.63
2022-11-01T19:43:09.639Z,101416.63
2022-11-01T19:45:42.565Z,101424.63
2022-11-01T19:48:14.326Z,101417.59
2022-11-01T19:50:45.240Z,101416.53
2022-11-01T19:53:23.120Z,101414.50
2022-11-01T19:55:55.945Z,101413.78
2022-11-01T19:58:42.117Z,101418.56
2022-11-01T20:01:30.919Z,101415.81
2022-11-01T20:04:02.813Z,101420.84
2022-11-01T20:06:37.238Z,101417.00
2022-11-01T20:09:14.222Z,101417.09
2022-11-01T20:11:43.266Z,101409.25
2022-11-01T20:14:13.131Z,101414.94
2022-11-01T20:16:42.267Z,101418.13
2022-11-01T20:19:13.298Z,101416.41
2022-11-01T20:21:46.408Z,101413.63
2022-11-01T20:24:16.825Z,101407.41
2022-11-01T20:26:45.774Z,101414.53
2022-11-01T20:29:15.378Z,101414.53
2022-11-01T20:31:44.774Z,101413.25
2022-11-01T20:34:13.735Z,101410.53
2022-11-01T20:36:44.602Z,101407.09
2022-11-01T20:39:19.990Z,101415.06
2022-11-01T20:41:50.409Z,101416.75
2022-11-01T20:44:20.101Z,101420.13
2022-11-01T20:46:49.515Z,101418.88
2022-11-01T20:49:21.238Z,101425.38
2022-11-01T20:51:50.854Z,101417.84
2022-11-01T20:54:21.502Z,101417.75
2022-11-01T20:56:50.575Z,101421.22
2022-11-01T20:59:22.970Z,101419.91
2022-11-01T21:01:52.433Z,101434.88
2022-11-01T21:04:21.579Z,101423.44
2022-11-01T21:06:50.741Z,101432.81
2022-11-01T21:09:40.236Z,101432.59
2022-11-01T21:12:34.426Z,101436.22
2022-11-01T21:15:35.940Z,101430.75
2022-11-01T21:18:36.170Z,101432.13
2022-11-01T21:21:34.333Z,101429.03
2022-11-01T21:24:28.834Z,101433.06
2022-11-01T21:27:02.273Z,101420.34
2022-11-01T21:29:31.383Z,101412.59
2022-11-01T21:32:03.056Z,101413.25
2022-11-01T21:34:32.689Z,101411.72
2022-11-01T21:37:01.849Z,101412.09
2022-11-01T21:39:32.894Z,101409.25
2022-11-01T21:42:05.505Z,101405.56
2022-11-01T21:44:39.870Z,101410.28
2022-11-01T21:47:20.554Z,101401.88
2022-11-01T21:49:50.036Z,101405.72
2022-11-01T21:52:20.660Z,101397.06
2022-11-01T21:54:50.066Z,101399.59
2022-11-01T21:57:19.136Z,101403.56
2022-11-01T21:59:48.072Z,101398.38
2022-11-01T22:02:18.617Z,101398.41
2022-11-01T22:04:47.646Z,101394.63
2022-11-01T22:07:16.582Z,101392.00
2022-11-01T22:09:45.488Z,101402.78
2022-11-01T22:12:14.393Z,101384.38
2022-11-01T22:14:43.439Z,101390.78
2022-11-01T22:17:12.353Z,101378.34
2022-11-01T22:19:42.668Z,101388.03
2022-11-01T22:22:11.559Z,101385.13
2022-11-01T22:24:40.542Z,101372.53
2022-11-01T22:27:09.449Z,101369.25
2022-11-01T22:29:38.391Z,101367.94
2022-11-01T22:32:07.328Z,101371.13
2022-11-01T22:34:36.271Z,101370.69
2022-11-01T22:37:13.457Z,101371.31
2022-11-01T22:39:43.258Z,101371.41
2022-11-01T22:42:14.399Z,101363.13
2022-11-01T22:44:45.354Z,101362.22
2022-11-01T22:47:23.021Z,101358.09
2022-11-01T22:49:54.964Z,101359.66
2022-11-01T22:52:31.973Z,101361.91
2022-11-01T22:55:05.248Z,101357.94
2022-11-01T22:57:37.212Z,101360.25
2022-11-01T23:00:27.107Z,101362.28
2022-11-01T23:03:03.566Z,101353.81
2022-11-01T23:05:32.964Z,101344.81
2022-11-01T23:08:15.257Z,101340.78
2022-11-01T23:10:49.361Z,101345.34
2022-11-01T23:13:41.752Z,101351.41
2022-11-01T23:16:23.055Z,101344.13
2022-11-01T23:18:53.379Z,101340.09
2022-11-01T23:21:23.353Z,101335.47
2022-11-01T23:23:54.221Z,101342.25
2022-11-01T23:26:24.814Z,101333.25
2022-11-01T23:28:56.565Z,101340.41
2022-11-01T23:31:26.678Z,101332.66
2022-11-01T23:33:55.682Z,101331.47
2022-11-01T23:36:27.675Z,101335.03
2022-11-01T23:39:00.762Z,101326.94
2022-11-01T23:41:33.651Z,101334.13
2022-11-01T23:44:07.392Z,101336.16
2022-11-01T23:46:36.338Z,101335.66
2022-11-01T23:49:16.794Z,101342.91
2022-11-01T23:51:46.011Z,101332.47
2022-11-01T23:54:25.035Z,101332.28
2022-11-01T23:56:56.059Z,101335.78
2022-11-01T23:59:25.091Z,101341.03
